Bezig met laden...

Meteo / TAF / Notam

België
  • EBAW - ANTWERPEN / DEURNE
    EBAW 290420Z AUTO 07006KT 030V090 2600 BR OVC003/// 04/02 Q1024
    TAF EBAW 290206Z 2903/2912 06006KT 3000 BR BKN003 TEMPO 2903/2911 1500 PROB40 2903/2910 0250 FG BKN001
  • EBBE - BEAUVECHAIN
    EBBE 290446Z AUTO 06006KT 1900 BR OVC002/// 03/02 Q1023 AMB
  • EBBL - KLEINE-BROGEL
    EBBL 290425Z AUTO 07008KT 3800 BR OVC004/// 03/02 Q1024 YLO
  • EBBR - BRUSSELS / BRUSSELS-NATIONAL
    EBBR 290420Z 09007KT 2000 BR BKN003 03/02 Q1023 NOSIG
    TAF EBBR 282317Z 2900/3006 06006KT 2500 BR BKN003 TEMPO 2900/2909 1500 PROB40 2902/2908 0250 FG BKN001 BECMG 2911/2913 6000 NSW BKN007 BECMG 2912/2914 NSC PROB40 3001/3006 4500 BR PROB30 3003/3006 1500 MIFG BKN003
  • EBCI - CHARLEROI / BRUSSELS SOUTH
    EBCI 290420Z 07011KT 0350 R24/0650D FG BKN001 02/01 Q1022 NOSIG
    TAF EBCI 282317Z 2900/3006 06006KT 3000 BR BKN003 TEMPO 2900/2910 1200 PROB40 2900/2908 0250 FG BKN001 BECMG 2911/2913 6000 NSW BKN007 BECMG 2913/2915 NSC PROB40 2923/3006 2500 BR BKN003 PROB30 3001/3006 0500 FG BKN001
  • EBCV - CHIÈVRES
    EBCV 290425Z AUTO 05012KT //// OVC003/// 03/03 Q1023 YLO
    TAF EBCV 281541Z 2819/2907 07004KT 9999 SKC BY EBWM BECMG 2900/2902 3000 BR BKN003 PROB40 TEMPO 2902/2907 0500 FG BKN001
  • EBDT - DIEST / SCHAFFEN
    EBDT 290425Z AUTO 07006KT 2200 BR OVC003/// 03/03 Q1024 YLO
  • EBFN - KOKSIJDE
    EBFN 290425Z AUTO 07007KT 0250 -RA OVC002/// 03/03 Q1023 RED
    TAF EBFN 281541Z 2819/2907 07006KT 7000 FEW300 BECMG 2822/2924 4000 BR SCT060 BECMG 2900/2902 2000 BR BKN003 TEMPO 2902/2907 VRB03KT 0800 FG BKN002 TEMPO 2902/2907 VRB03KT 0200 FG BKN001
  • EBFS - FLORENNES
    EBFS 290425Z AUTO 04008KT 0100 FG OVC002/// 01/01 Q1021 RED
  • EBLB - ELSENBORN
    EBLB 290425Z AUTO 08003KT 0550 FG OVC002/// M02/M02 Q1021 RED
  • EBLG - LIÈGE / LIÈGE
    EBLG 290420Z 04006KT 0350 R22L/0800D R22R/0800D R04R/1500U FG BKN001 01/00 Q1023 NOSIG
    TAF EBLG 282317Z 2900/3006 06006KT 2000 BR BKN003 TEMPO 2900/2908 1500 PROB40 2900/2906 0250 FG BKN001 BECMG 2909/2911 6000 NSW FEW015 PROB30 3002/3006 3500 BR BKN005
  • EBOS - OOSTENDE-BRUGGE / OOSTENDE
    EBOS 290420Z 08009KT 0400 R08/0600N R26/0750N FG BKN001 BKN002 02/02 Q1024 NOSIG
    TAF EBOS 282317Z 2900/3006 08008KT 3000 BR BKN003 TEMPO 2900/2909 1500 PROB40 2900/2908 0250 FG BKN001 BECMG 2909/2911 6000 NSW BKN007 BECMG 2918/2920 NSC PROB30 2922/3006 1500 BR MIFG
Nederland
  • EHAK - A12-CPP HELIPAD OIL 2011
    EHAK 290425Z AUTO 14012KT 080V210 9999 BKN014/// OVC016/// 08/04 Q1027
  • EHAM - AMSTERDAM AIRPORT SCHIPHOL
    EHAM 290425Z 09007KT 050V130 2600 BR SCT002 BKN004 04/03 Q1025 BECMG 5000 BKN005
    TAF AMD EHAM 290225Z 2902/3006 07007KT 2000 BR OVC002 BECMG 2902/2904 4000 OVC004 BECMG 2904/2906 6000 NSW BKN006 BECMG 2906/2908 8000 BKN012 BECMG 2908/2911 CAVOK PROB30 2920/3003 VRB03KT 5000 BR BECMG 3003/3006 18008KT
  • EHBK - MAASTRICHT AACHEN AIRPORT
    EHBK 290425Z AUTO 08008KT 050V110 2300 BR OVC001 01/01 Q1023
    TAF EHBK 282317Z 2900/3006 07008KT 2000 BR BKN004 BECMG 2901/2904 4000 BKN007 BECMG 2909/2912 CAVOK PROB30 2922/3006 4000 BR
  • EHDL - DEELEN AIR BASE
    EHDL 290425Z AUTO 08007KT 020V160 9000 BR OVC009 02/01 Q1025 GRN
  • EHDV - D15-FA-1 SEA
    EHDV 290425Z AUTO 12014KT 9999 OVC009/// 08/06 Q1025
  • EHEH - EINDHOVEN AIRPORT
    EHEH 290425Z AUTO 06007KT 020V080 4600 BR OVC005 03/02 Q1024 YLO
    TAF EHEH 282315Z 2900/3006 07010KT 3000 BR OVC004 PROB40 2900/2907 5000 NSW SCT005 BKN008 BECMG 2907/2909 9999 FEW022 BECMG 2919/2921 VRB02KT 1200 BR BECMG 3004/3006 21004KT
  • EHFD - F-3 PLATFORM
    EHFD 290425Z AUTO /////KT 9999 // BKN013/// 07/03 Q1026 RE//
  • EHFS - VLISSINGEN
    EHFS 290425Z AUTO 05011KT 0350 -UP VV000 04/04 Q1024
  • EHGG - GRONINGEN AIRPORT EELDE
    EHGG 290425Z AUTO 10004KT 070V130 9999 FEW012 00/M01 Q1026
    TAF EHGG 282317Z 2900/3006 10008KT 9999 BKN012 BECMG 2901/2904 CAVOK PROB30 2901/2909 4000 BR BECMG 2917/2920 4000 BR MIFG BECMG 2920/2923 2000 PROB40 2920/3006 0700 FG BKN001
  • EHGR - GILZE-RIJEN AIR BASE
    EHGR 290442Z AUTO 05008KT 360V090 2600 BR OVC002 04/03 Q1024 AMB
  • EHJA - J6-A SEA, NETHERLANDS
    EHJA 290425Z AUTO VRB14KT 7000 OVC004/// 07/06 Q1025
  • EHJR - K13-A PLATFORM
    EHJR 290425Z AUTO 00000KT //// // ///////// 07/06 Q1025 RE// W///H8
  • EHKD - DEN HELDER AIRPORT
    EHKD 290425Z AUTO 09010KT 040V120 8000 BR OVC008 04/01 Q1026 GRN
    TAF EHKD 290148Z 2902/2914 08005KT 3500 BR OVC004 BECMG 2903/2905 6000 NSW OVC010 BECMG 2907/2909 SCT022
  • EHKV - K14-FA-1C PLATFORM
    EHKV 290425Z AUTO 11012KT 7000 FEW004 BKN005 OVC006 07/05 Q1025
  • EHLE - LELYSTAD AIRPORT
    EHLE 290425Z AUTO 09008KT 050V130 8000 FEW008 OVC009 03/01 Q1025
    TAF EHLE 282316Z 2900/3006 08009KT 3000 BR OVC003 BECMG 2900/2902 6000 NSW OVC005 BECMG 2902/2905 8000 BKN010 BECMG 2905/2908 CAVOK BECMG 2918/2921 VRB03KT 7000 PROB40 2921/3006 4000 BR PROB30 TEMPO 2922/3003 0800 FG OVC001 BECMG 3003/3006 18007KT
  • EHLW - LEEUWARDEN AIR BASE
    EHLW 290425Z AUTO 11006KT 030V160 9999 OVC008 02/M00 Q1027 GRN
    TAF EHLW 290147Z 2902/2914 08008KT 9999 OVC010 BECMG 2906/2909 SCT022
  • EHMA - AWG-1 PLATFORM
    EHMA 290425Z AUTO 10012KT 9999 BKN006 OVC007 02/M01 Q1027
  • EHMG - L9-FF-1 PLATFORM
    EHMG 290425Z AUTO 10012KT 9999 FEW008 OVC010 05/02 Q1027
  • EHPG - P11-B SEA, NETHERLANDS
    EHPG 290425Z AUTO 09011KT 3500 BR BKN001 OVC002 06/06 Q1024
  • EHQE - HOORN-A SEA, NETHERLANDS
    EHQE 290425Z AUTO 06015KT 360V080 4700 BR SCT001 BKN003 05/04 Q1025
  • EHRD - ROTTERDAM THE HAGUE AIRPORT
    EHRD 290425Z AUTO 09008KT 060V120 1200 R06/1800N BR OVC001 04/04 Q1025 BECMG 1500 BR OVC002
    TAF AMD EHRD 290246Z 2902/3006 07007KT 1400 BR OVC001 BECMG 2903/2905 2500 BKN003 BECMG 2905/2907 6000 NSW BKN006 BECMG 2907/2909 8000 BKN012 BECMG 2909/2911 CAVOK BECMG 2918/2921 VRB03KT 7000 PROB30 2921/3003 4000 BR BECMG 3003/3006 18007KT
  • EHSA - EURO PLATFORM
    EHSA 290425Z AUTO 06010KT 040V100 3000 BR ///////// 06/06 Q1024 W10/H7
  • EHSC - LICHTEILAND GOEREE
    EHSC 290425Z AUTO 09011KT 0700 -RA ///////// 04/04 Q1024 W11/H5
  • EHVK - VOLKEL AIR BASE
    EHVK 290425Z AUTO 08011KT 050V120 6000 BR BKN009 OVC010 02/M00 Q1024 GRN
    TAF EHVK 290144Z 2902/2914 07010KT 3500 BR OVC005 PROB40 2902/2907 5000 NSW BECMG 2907/2909 9999 NSC
  • EHVL - VLIELAND HELIPORT
    EHVL 290425Z AUTO 11011KT 9999 OVC008 03/01 Q1026 GRN
  • EHWO - WOENSDRECHT AIR BASE
    EHWO 290425Z AUTO 07008KT 050V110 1200 BR OVC001 03/03 Q1024 RED
Luxemburg
  • ELLX - LUXEMBOURG FINDEL AIRPORT
    ELLX 290420Z 05011KT 3000 BR BKN002 01/01 Q1021 NOSIG
    TAF ELLX 282300Z 2900/3006 04008KT CAVOK BECMG 2900/2903 3000 BR SCT005 PROB40 TEMPO 2903/2906 0500 FZFG BKN001 BECMG 2907/2910 CAVOK BECMG 3000/3003 3500 NSC

Buienradar



Weerbericht - Voorspelling